createdAt,value
2018-05-13T00:00:05.537Z,20.90
2018-05-13T00:02:33.204Z,20.70
2018-05-13T00:05:00.984Z,21.10
2018-05-13T00:07:28.758Z,21.20
2018-05-13T00:09:56.534Z,21.10
2018-05-13T00:12:24.235Z,20.80
2018-05-13T00:14:51.996Z,21.10
2018-05-13T00:17:19.761Z,21.10
2018-05-13T00:19:47.537Z,20.70
2018-05-13T00:22:15.313Z,20.60
2018-05-13T00:24:43.098Z,20.50
2018-05-13T00:27:10.789Z,21.10
2018-05-13T00:29:38.749Z,20.50
2018-05-13T00:32:06.377Z,20.60
2018-05-13T00:34:34.828Z,20.50
2018-05-13T00:37:02.616Z,20.50
2018-05-13T00:39:30.280Z,20.70
2018-05-13T00:41:58.061Z,20.30
2018-05-13T00:44:25.737Z,20.80
2018-05-13T00:46:53.487Z,21.10
2018-05-13T00:49:21.268Z,21.30
2018-05-13T00:51:49.039Z,21.30
2018-05-13T00:54:28.801Z,21.40
2018-05-13T00:56:56.499Z,21.30
2018-05-13T00:59:24.165Z,21.00
2018-05-13T01:01:51.919Z,21.00
2018-05-13T01:04:19.620Z,20.90
2018-05-13T01:06:47.473Z,20.70
2018-05-13T01:09:15.248Z,20.70
2018-05-13T01:11:42.951Z,20.90
2018-05-13T01:14:10.701Z,21.00
2018-05-13T01:16:38.577Z,21.00
2018-05-13T01:19:06.277Z,21.00
2018-05-13T01:21:34.053Z,21.00
2018-05-13T01:24:01.717Z,21.00
2018-05-13T01:26:29.401Z,21.00
2018-05-13T01:28:57.072Z,21.00
2018-05-13T01:31:24.745Z,20.90
2018-05-13T01:33:52.521Z,21.00
2018-05-13T01:36:20.153Z,21.10
2018-05-13T01:38:47.847Z,20.90
2018-05-13T01:41:15.545Z,20.80
2018-05-13T01:43:43.401Z,20.90
2018-05-13T01:46:11.077Z,20.60
2018-05-13T01:48:38.766Z,20.20
2018-05-13T01:51:06.414Z,20.40
2018-05-13T01:53:34.196Z,20.60
2018-05-13T01:56:01.973Z,20.60
2018-05-13T01:58:29.749Z,20.70
2018-05-13T02:00:57.525Z,20.80
2018-05-13T02:03:25.301Z,20.80
2018-05-13T02:05:52.978Z,20.80
2018-05-13T02:08:20.752Z,20.80
2018-05-13T02:10:48.449Z,20.80
2018-05-13T02:13:16.202Z,20.80
2018-05-13T02:15:43.980Z,20.70
2018-05-13T02:18:11.680Z,20.40
2018-05-13T02:20:39.548Z,20.40
2018-05-13T02:23:07.231Z,20.40
2018-05-13T02:25:35.012Z,20.50
2018-05-13T02:28:02.684Z,20.50
2018-05-13T02:30:30.362Z,20.40
2018-05-13T02:32:58.107Z,20.30
2018-05-13T02:35:25.886Z,20.40
2018-05-13T02:37:53.581Z,20.40
2018-05-13T02:40:21.362Z,20.50
2018-05-13T02:42:49.112Z,20.50
2018-05-13T02:45:17.094Z,20.40
2018-05-13T02:47:44.797Z,20.40
2018-05-13T02:50:12.542Z,20.40
2018-05-13T02:52:40.320Z,20.40
2018-05-13T02:55:08.013Z,20.10
2018-05-13T02:57:35.681Z,20.10
2018-05-13T03:00:03.444Z,20.10
2018-05-13T03:02:31.241Z,20.10
2018-05-13T03:04:58.910Z,20.20
2018-05-13T03:07:26.784Z,20.20
2018-05-13T03:09:54.479Z,20.30
2018-05-13T03:12:22.220Z,20.30
2018-05-13T03:14:49.917Z,20.30
2018-05-13T03:17:17.693Z,20.20
2018-05-13T03:19:45.447Z,20.30
2018-05-13T03:22:13.224Z,20.20
2018-05-13T03:24:41.000Z,20.20
2018-05-13T03:27:08.692Z,20.20
2018-05-13T03:29:36.347Z,19.70
2018-05-13T03:32:04.121Z,19.80
2018-05-13T03:34:31.825Z,20.10
2018-05-13T03:36:59.578Z,19.90
2018-05-13T03:39:27.357Z,19.40
2018-05-13T03:41:54.996Z,20.00
2018-05-13T03:44:23.624Z,19.70
2018-05-13T03:46:51.323Z,19.70
2018-05-13T03:49:19.101Z,18.90
2018-05-13T03:51:46.850Z,17.70
2018-05-13T03:54:14.549Z,18.00
2018-05-13T03:56:42.223Z,18.40
2018-05-13T03:59:10.008Z,18.60
2018-05-13T04:01:37.749Z,17.80
2018-05-13T04:04:05.466Z,16.30
2018-05-13T04:06:33.118Z,16.50
2018-05-13T04:09:12.858Z,16.30
2018-05-13T04:11:52.409Z,16.20
2018-05-13T04:14:32.169Z,15.80
2018-05-13T04:16:59.865Z,15.40
2018-05-13T04:19:27.528Z,16.60
2018-05-13T04:21:55.297Z,17.10
2018-05-13T04:24:23.068Z,17.30
2018-05-13T04:26:50.772Z,17.60
2018-05-13T04:29:18.521Z,17.80
2018-05-13T04:31:46.294Z,17.80
2018-05-13T04:34:13.997Z,17.90
2018-05-13T04:36:41.847Z,17.90
2018-05-13T04:39:09.623Z,18.00
2018-05-13T04:41:37.370Z,18.20
2018-05-13T04:44:05.916Z,17.40
2018-05-13T04:46:33.768Z,17.40
2018-05-13T04:49:01.447Z,17.20
2018-05-13T04:51:29.233Z,17.40
2018-05-13T04:53:57.000Z,17.90
2018-05-13T04:56:24.775Z,17.30
2018-05-13T04:58:52.471Z,17.40
2018-05-13T05:01:20.325Z,17.80
2018-05-13T05:03:48.101Z,18.20
2018-05-13T05:06:15.984Z,17.40
2018-05-13T05:08:43.657Z,17.60
2018-05-13T05:11:11.431Z,18.10
2018-05-13T05:13:39.248Z,18.30
2018-05-13T05:16:06.981Z,18.70
2018-05-13T05:18:34.758Z,18.90
2018-05-13T05:21:02.453Z,19.10
2018-05-13T05:23:30.310Z,19.30
2018-05-13T05:25:57.948Z,19.30
2018-05-13T05:28:26.478Z,18.50
2018-05-13T05:30:54.254Z,18.50
2018-05-13T05:33:21.961Z,18.90
2018-05-13T05:35:49.794Z,19.20
2018-05-13T05:38:17.585Z,19.20
2018-05-13T05:40:45.292Z,19.50
2018-05-13T05:43:13.139Z,19.30
2018-05-13T05:45:40.841Z,19.60
2018-05-13T05:48:08.616Z,20.00
2018-05-13T05:50:36.364Z,19.00
2018-05-13T05:53:04.061Z,19.20
2018-05-13T05:55:31.841Z,18.70
2018-05-13T05:57:59.615Z,18.90
2018-05-13T06:00:27.245Z,19.30
2018-05-13T06:02:54.939Z,19.30
2018-05-13T06:05:22.714Z,19.90
2018-05-13T06:07:50.413Z,19.60
2018-05-13T06:10:18.267Z,20.20
2018-05-13T06:12:46.109Z,19.90
2018-05-13T06:15:14.641Z,19.70
2018-05-13T06:17:42.341Z,19.70
2018-05-13T06:20:10.112Z,19.70
2018-05-13T06:22:37.864Z,19.70
2018-05-13T06:25:05.567Z,20.00
2018-05-13T06:27:34.054Z,20.60
2018-05-13T06:30:01.835Z,20.60
2018-05-13T06:32:29.610Z,21.00
2018-05-13T06:34:57.361Z,21.60
2018-05-13T06:37:25.137Z,21.60
2018-05-13T06:39:52.837Z,20.90
2018-05-13T06:42:20.587Z,21.20
2018-05-13T06:44:48.366Z,21.40
2018-05-13T06:47:16.008Z,21.80
2018-05-13T06:49:43.641Z,22.40
2018-05-13T06:52:11.488Z,23.20
2018-05-13T06:54:39.149Z,22.80
2018-05-13T06:57:06.865Z,22.70
2018-05-13T06:59:34.610Z,23.30
2018-05-13T07:02:02.387Z,23.10
2018-05-13T07:04:30.021Z,23.10
2018-05-13T07:06:58.469Z,23.30
2018-05-13T07:09:26.108Z,23.20
2018-05-13T07:11:53.821Z,23.30
2018-05-13T07:14:21.496Z,23.50
2018-05-13T07:16:49.250Z,23.10
2018-05-13T07:19:17.129Z,23.50
2018-05-13T07:21:44.905Z,23.70
2018-05-13T07:24:12.605Z,22.90
2018-05-13T07:26:40.458Z,23.70
2018-05-13T07:29:08.130Z,22.90
2018-05-13T07:31:35.906Z,22.60
2018-05-13T07:34:03.682Z,22.70
2018-05-13T07:36:31.486Z,23.70
2018-05-13T07:38:59.188Z,23.10
2018-05-13T07:41:27.626Z,22.20
2018-05-13T07:43:55.309Z,22.10
2018-05-13T07:46:23.078Z,22.20
2018-05-13T07:48:50.853Z,21.50
2018-05-13T07:51:18.629Z,21.20
2018-05-13T07:53:46.406Z,21.80
2018-05-13T07:56:14.053Z,22.40
2018-05-13T07:58:41.858Z,22.80
2018-05-13T08:01:09.557Z,22.30
2018-05-13T08:03:37.230Z,22.10
2018-05-13T08:06:04.909Z,21.90
2018-05-13T08:08:32.686Z,22.40
2018-05-13T08:11:00.429Z,22.10
2018-05-13T08:13:28.126Z,22.40
2018-05-13T08:15:55.802Z,21.90
2018-05-13T08:18:23.577Z,21.80
2018-05-13T08:20:51.253Z,21.40
2018-05-13T08:23:19.106Z,21.50
2018-05-13T08:25:46.732Z,21.90
2018-05-13T08:28:15.273Z,21.60
2018-05-13T08:30:42.978Z,21.60
2018-05-13T08:33:11.442Z,21.60
2018-05-13T08:35:39.326Z,21.50
2018-05-13T08:38:07.014Z,20.80
2018-05-13T08:40:34.771Z,20.70
2018-05-13T08:43:02.442Z,20.70
2018-05-13T08:45:30.218Z,20.80
2018-05-13T08:47:57.917Z,20.60
2018-05-13T08:50:25.668Z,20.10
2018-05-13T08:52:53.365Z,20.70
2018-05-13T08:55:21.221Z,20.40
2018-05-13T08:57:48.925Z,20.20
2018-05-13T09:00:16.774Z,20.10
2018-05-13T09:02:44.552Z,20.40
2018-05-13T09:05:12.271Z,20.30
2018-05-13T09:07:40.853Z,20.40
2018-05-13T09:10:08.491Z,20.40
2018-05-13T09:12:36.152Z,20.10
2018-05-13T09:15:03.968Z,20.60
2018-05-13T09:17:31.671Z,21.00
2018-05-13T09:20:00.133Z,19.50
2018-05-13T09:22:27.833Z,19.50
2018-05-13T09:24:55.486Z,19.60
2018-05-13T09:27:23.338Z,19.80
2018-05-13T09:29:51.525Z,19.30
2018-05-13T09:32:19.332Z,19.00
2018-05-13T09:34:47.075Z,19.50
2018-05-13T09:37:14.853Z,19.50
2018-05-13T09:39:42.629Z,20.00
2018-05-13T09:42:10.516Z,19.50
2018-05-13T09:44:38.281Z,19.40
2018-05-13T09:47:05.956Z,19.40
2018-05-13T09:49:33.735Z,18.90
2018-05-13T09:52:01.433Z,19.30
2018-05-13T09:54:29.284Z,19.00
2018-05-13T09:56:57.061Z,18.70
2018-05-13T09:59:24.940Z,19.00
2018-05-13T10:01:52.594Z,18.20
2018-05-13T10:04:20.309Z,18.50
2018-05-13T10:06:48.064Z,18.90
2018-05-13T10:09:15.761Z,18.60
2018-05-13T10:11:43.517Z,19.00
2018-05-13T10:14:11.394Z,19.20
2018-05-13T10:16:39.089Z,19.00
2018-05-13T10:19:06.865Z,18.20
2018-05-13T10:21:34.617Z,19.00
2018-05-13T10:24:02.394Z,18.20
2018-05-13T10:26:30.094Z,19.00
2018-05-13T10:28:57.845Z,18.60
2018-05-13T10:31:25.619Z,18.50
2018-05-13T10:33:53.308Z,18.70
2018-05-13T10:36:21.108Z,18.30
2018-05-13T10:38:48.946Z,17.70
2018-05-13T10:41:16.629Z,17.30
2018-05-13T10:43:44.322Z,17.20
2018-05-13T10:46:12.009Z,18.10
2018-05-13T10:48:39.645Z,18.20
2018-05-13T10:51:08.984Z,17.70
2018-05-13T10:53:36.732Z,17.70
2018-05-13T10:56:04.611Z,17.90
2018-05-13T10:58:32.388Z,17.40
2018-05-13T11:01:00.165Z,17.70
2018-05-13T11:03:27.940Z,17.80
2018-05-13T11:05:55.717Z,18.30
2018-05-13T11:08:23.493Z,18.70
2018-05-13T11:10:51.267Z,18.50
2018-05-13T11:13:19.043Z,18.20
2018-05-13T11:15:46.750Z,17.60
2018-05-13T11:18:14.528Z,17.20
2018-05-13T11:20:42.282Z,17.60
2018-05-13T11:23:10.153Z,18.40
2018-05-13T11:25:37.927Z,18.30
2018-05-13T11:28:05.600Z,18.20
2018-05-13T11:30:33.302Z,17.50
2018-05-13T11:33:00.982Z,17.90
2018-05-13T11:35:28.721Z,17.80
2018-05-13T11:37:56.500Z,17.90
2018-05-13T11:40:24.223Z,17.90
2018-05-13T11:42:52.769Z,18.10
2018-05-13T11:45:20.405Z,18.10
2018-05-13T11:47:48.964Z,18.10
2018-05-13T11:50:16.635Z,18.10
2018-05-13T11:52:44.493Z,17.70
2018-05-13T11:55:12.292Z,17.40
2018-05-13T11:57:40.144Z,17.50
2018-05-13T12:00:07.847Z,17.60
2018-05-13T12:02:35.593Z,18.00
2018-05-13T12:05:03.576Z,17.30
2018-05-13T12:07:31.276Z,17.30
2018-05-13T12:09:59.176Z,18.10
2018-05-13T12:12:27.004Z,18.40
2018-05-13T12:14:54.807Z,18.10
2018-05-13T12:17:22.559Z,18.20
2018-05-13T12:19:50.253Z,17.70
2018-05-13T12:22:17.888Z,17.60
2018-05-13T12:24:45.712Z,17.30
2018-05-13T12:27:13.357Z,17.40
2018-05-13T12:29:41.234Z,17.20
2018-05-13T12:32:08.933Z,17.40
2018-05-13T12:34:36.686Z,17.50
2018-05-13T12:37:04.564Z,17.30
2018-05-13T12:39:32.253Z,17.10
2018-05-13T12:42:00.011Z,17.10
2018-05-13T12:44:27.889Z,17.10
2018-05-13T12:46:55.666Z,17.20
2018-05-13T12:49:23.442Z,17.60
2018-05-13T12:51:51.221Z,17.50
2018-05-13T12:54:18.895Z,17.10
2018-05-13T12:56:46.568Z,17.30
2018-05-13T12:59:14.264Z,17.00
2018-05-13T13:01:42.062Z,17.40
2018-05-13T13:04:10.613Z,17.10
2018-05-13T13:06:38.390Z,17.10
2018-05-13T13:09:06.099Z,17.10
2018-05-13T13:11:33.796Z,17.10
2018-05-13T13:14:02.253Z,17.00
2018-05-13T13:16:29.913Z,17.00
2018-05-13T13:18:57.519Z,17.00
2018-05-13T13:21:25.257Z,17.10
2018-05-13T13:23:52.868Z,17.30
2018-05-13T13:26:20.520Z,16.80
2018-05-13T13:28:48.140Z,16.80
2018-05-13T13:31:15.804Z,17.00
2018-05-13T13:33:44.206Z,17.10
2018-05-13T13:36:11.825Z,17.10
2018-05-13T13:38:39.473Z,17.00
2018-05-13T13:41:07.101Z,17.40
2018-05-13T13:43:35.522Z,17.40
2018-05-13T13:46:03.145Z,17.30
2018-05-13T13:48:30.792Z,17.20
2018-05-13T13:50:58.428Z,17.00
2018-05-13T13:53:26.169Z,17.00
2018-05-13T13:55:53.811Z,17.30
2018-05-13T13:58:21.458Z,16.80
2018-05-13T14:00:49.096Z,16.80
2018-05-13T14:03:16.928Z,16.80
2018-05-13T14:05:44.542Z,17.20
2018-05-13T14:08:13.723Z,16.60
2018-05-13T14:10:41.344Z,16.60
2018-05-13T14:13:09.749Z,16.60
2018-05-13T14:15:37.375Z,16.60
2018-05-13T14:18:05.035Z,16.30
2018-05-13T14:20:32.703Z,17.00
2018-05-13T14:23:00.356Z,16.90
2018-05-13T14:25:28.032Z,17.00
2018-05-13T14:27:55.674Z,17.10
2018-05-13T14:30:24.049Z,16.50
2018-05-13T14:32:51.793Z,16.50
2018-05-13T14:35:19.461Z,17.00
2018-05-13T14:37:47.075Z,16.90
2018-05-13T14:40:15.500Z,16.30
2018-05-13T14:42:43.125Z,16.20
2018-05-13T14:45:10.830Z,16.90
2018-05-13T14:47:38.428Z,16.70
2018-05-13T14:50:06.063Z,16.80
2018-05-13T14:52:34.444Z,17.40
2018-05-13T14:55:02.094Z,17.40
2018-05-13T14:57:29.712Z,16.00
2018-05-13T14:59:57.381Z,16.50
2018-05-13T15:02:25.757Z,16.20
2018-05-13T15:04:54.212Z,16.40
2018-05-13T15:07:30.656Z,16.40
2018-05-13T15:09:58.316Z,16.10
2018-05-13T15:12:26.753Z,16.90
2018-05-13T15:14:54.393Z,16.90
2018-05-13T15:17:22.085Z,17.00
2018-05-13T15:19:49.740Z,16.00
2018-05-13T15:22:17.375Z,16.40
2018-05-13T15:24:45.029Z,17.00
2018-05-13T15:27:12.692Z,16.80
2018-05-13T15:29:40.306Z,17.00
2018-05-13T15:32:08.720Z,16.30
2018-05-13T15:34:36.328Z,16.20
2018-05-13T15:37:03.981Z,15.90
2018-05-13T15:39:31.605Z,16.40
2018-05-13T15:41:59.277Z,16.80
2018-05-13T15:44:26.893Z,16.80
2018-05-13T15:46:54.581Z,16.40
2018-05-13T15:49:22.200Z,17.10
2018-05-13T15:51:49.858Z,16.70
2018-05-13T15:54:17.481Z,17.10
2018-05-13T15:56:45.197Z,17.30
2018-05-13T15:59:12.838Z,17.40
2018-05-13T16:01:40.488Z,16.80
2018-05-13T16:04:08.868Z,16.40
2018-05-13T16:06:36.536Z,16.40
2018-05-13T16:09:05.820Z,16.90
2018-05-13T16:11:33.676Z,16.90
2018-05-13T16:14:01.305Z,16.90
2018-05-13T16:16:29.686Z,16.80
2018-05-13T16:18:57.346Z,16.80
2018-05-13T16:21:24.971Z,17.10
2018-05-13T16:23:52.622Z,17.40
2018-05-13T16:26:20.261Z,16.90
2018-05-13T16:28:48.010Z,16.80
2018-05-13T16:31:15.637Z,16.80
2018-05-13T16:33:44.083Z,16.80
2018-05-13T16:36:11.728Z,16.90
2018-05-13T16:38:39.368Z,16.40
2018-05-13T16:41:08.527Z,16.10
2018-05-13T16:43:36.175Z,16.10
2018-05-13T16:46:04.579Z,16.50
2018-05-13T16:48:32.243Z,16.50
2018-05-13T16:50:59.947Z,16.50
2018-05-13T16:53:27.593Z,17.00
2018-05-13T16:55:55.212Z,16.80
2018-05-13T16:58:22.861Z,16.80
2018-05-13T17:00:50.580Z,16.10
2018-05-13T17:03:18.250Z,16.50
2018-05-13T17:05:45.901Z,16.30
2018-05-13T17:08:13.590Z,16.90
2018-05-13T17:10:41.342Z,17.10
2018-05-13T17:13:09.212Z,17.10
2018-05-13T17:15:36.997Z,16.90
2018-05-13T17:18:04.611Z,16.70
2018-05-13T17:20:32.269Z,17.10
2018-05-13T17:22:59.881Z,16.80
2018-05-13T17:25:27.529Z,16.90
2018-05-13T17:27:55.150Z,17.20
2018-05-13T17:30:22.841Z,17.00
2018-05-13T17:32:50.475Z,16.80
2018-05-13T17:35:18.904Z,16.60
2018-05-13T17:37:46.525Z,16.50
2018-05-13T17:40:14.240Z,16.90
2018-05-13T17:42:41.929Z,17.30
2018-05-13T17:45:09.574Z,17.50
2018-05-13T17:47:37.185Z,17.60
2018-05-13T17:50:04.948Z,17.30
2018-05-13T17:52:32.564Z,17.30
2018-05-13T17:55:00.184Z,17.10
2018-05-13T17:57:27.945Z,17.50
2018-05-13T17:59:55.486Z,17.50
2018-05-13T18:02:23.924Z,16.80
2018-05-13T18:04:51.555Z,16.80
2018-05-13T18:07:19.991Z,17.20
2018-05-13T18:09:47.658Z,17.20
2018-05-13T18:12:15.455Z,17.50
2018-05-13T18:14:43.078Z,17.70
2018-05-13T18:17:11.500Z,17.60
2018-05-13T18:19:39.117Z,17.50
2018-05-13T18:22:06.756Z,16.70
2018-05-13T18:24:34.428Z,16.50
2018-05-13T18:27:02.087Z,16.30
2018-05-13T18:29:29.711Z,16.40
2018-05-13T18:31:57.368Z,16.90
2018-05-13T18:34:25.000Z,16.70
2018-05-13T18:36:53.426Z,16.90
2018-05-13T18:39:21.101Z,16.90
2018-05-13T18:41:48.783Z,17.10
2018-05-13T18:44:16.865Z,17.60
2018-05-13T18:46:44.500Z,17.10
2018-05-13T18:49:12.921Z,17.10
2018-05-13T18:51:40.541Z,17.10
2018-05-13T18:54:08.400Z,17.50
2018-05-13T18:56:36.028Z,17.70
2018-05-13T18:59:03.899Z,17.40
2018-05-13T19:01:31.517Z,17.20
2018-05-13T19:03:59.174Z,17.20
2018-05-13T19:06:26.850Z,17.50
2018-05-13T19:08:54.495Z,17.00
2018-05-13T19:11:22.884Z,17.50
2018-05-13T19:13:50.550Z,17.50
2018-05-13T19:16:18.920Z,17.30
2018-05-13T19:18:46.582Z,17.30
2018-05-13T19:21:14.205Z,17.30
2018-05-13T19:23:41.903Z,16.70
2018-05-13T19:26:09.509Z,17.00
2018-05-13T19:28:37.160Z,17.10
2018-05-13T19:31:04.800Z,17.30
2018-05-13T19:33:32.410Z,17.50
2018-05-13T19:36:00.056Z,17.40
2018-05-13T19:38:27.698Z,17.60
2018-05-13T19:40:56.104Z,17.00
2018-05-13T19:43:23.971Z,17.00
2018-05-13T19:45:51.682Z,17.40
2018-05-13T19:48:19.287Z,17.10
2018-05-13T19:50:46.931Z,17.30
2018-05-13T19:53:14.548Z,17.20
2018-05-13T19:55:42.209Z,17.20
2018-05-13T19:58:09.833Z,17.00
2018-05-13T20:00:37.481Z,17.30
2018-05-13T20:03:05.921Z,17.60
2018-05-13T20:05:33.577Z,17.60
2018-05-13T20:08:01.193Z,17.10
2018-05-13T20:10:28.840Z,17.30
2018-05-13T20:12:56.447Z,17.50
2018-05-13T20:15:24.113Z,17.70
2018-05-13T20:17:52.565Z,17.80
2018-05-13T20:20:20.212Z,17.80
2018-05-13T20:22:59.825Z,17.70
2018-05-13T20:25:27.476Z,17.40
2018-05-13T20:27:55.091Z,17.30
2018-05-13T20:30:22.843Z,16.80
2018-05-13T20:32:50.483Z,17.10
2018-05-13T20:35:18.088Z,17.60
2018-05-13T20:37:45.759Z,17.60
2018-05-13T20:40:13.384Z,17.30
2018-05-13T20:42:41.032Z,17.90
2018-05-13T20:45:09.409Z,17.50
2018-05-13T20:47:37.055Z,17.50
2018-05-13T20:50:04.668Z,17.40
2018-05-13T20:52:33.080Z,17.10
2018-05-13T20:55:00.705Z,17.00
2018-05-13T20:57:28.355Z,16.90
2018-05-13T20:59:55.961Z,17.20
2018-05-13T21:02:23.696Z,16.80
2018-05-13T21:04:51.313Z,17.00
2018-05-13T21:07:18.987Z,17.20
2018-05-13T21:09:46.597Z,17.20
2018-05-13T21:12:14.316Z,16.10
2018-05-13T21:14:41.971Z,16.30
2018-05-13T21:17:09.606Z,16.20
2018-05-13T21:19:38.009Z,16.90
2018-05-13T21:22:05.612Z,16.90
2018-05-13T21:24:33.274Z,16.80
2018-05-13T21:27:00.904Z,16.60
2018-05-13T21:29:28.554Z,16.50
2018-05-13T21:31:56.171Z,17.00
2018-05-13T21:34:23.827Z,17.30
2018-05-13T21:36:51.434Z,17.70
2018-05-13T21:39:19.084Z,17.30
2018-05-13T21:41:47.468Z,17.30
2018-05-13T21:44:15.881Z,17.30
2018-05-13T21:46:43.537Z,17.30
2018-05-13T21:49:11.180Z,17.00
2018-05-13T21:51:40.359Z,17.30
2018-05-13T21:54:07.998Z,17.30
2018-05-13T21:56:35.708Z,17.20
2018-05-13T21:59:03.349Z,17.20
2018-05-13T22:01:31.057Z,17.30
2018-05-13T22:03:58.696Z,17.20
2018-05-13T22:06:26.301Z,17.10
2018-05-13T22:08:53.944Z,16.80
2018-05-13T22:11:21.565Z,17.10
2018-05-13T22:13:49.229Z,17.20
2018-05-13T22:16:16.986Z,17.00
2018-05-13T22:18:44.593Z,16.80
2018-05-13T22:21:12.240Z,17.20
2018-05-13T22:23:39.856Z,17.40
2018-05-13T22:26:07.491Z,16.20
2018-05-13T22:28:35.100Z,16.30
2018-05-13T22:31:03.517Z,16.60
2018-05-13T22:33:31.124Z,16.60
2018-05-13T22:35:58.786Z,16.10
2018-05-13T22:38:26.392Z,15.90
2018-05-13T22:40:54.039Z,15.60
2018-05-13T22:43:21.660Z,15.60
2018-05-13T22:45:49.320Z,15.10
2018-05-13T22:48:16.942Z,15.30
2018-05-13T22:50:44.584Z,15.70
2018-05-13T22:53:12.952Z,15.50
2018-05-13T22:55:40.600Z,15.50
2018-05-13T22:58:08.204Z,15.70
2018-05-13T23:00:35.858Z,15.80
2018-05-13T23:03:03.466Z,16.00
2018-05-13T23:05:31.921Z,15.50
2018-05-13T23:07:59.528Z,15.40
2018-05-13T23:10:27.904Z,15.70
2018-05-13T23:12:55.556Z,15.70
2018-05-13T23:15:23.168Z,15.70
2018-05-13T23:17:51.584Z,15.70
2018-05-13T23:20:19.270Z,15.60
2018-05-13T23:22:46.917Z,15.40
2018-05-13T23:25:14.538Z,15.00
2018-05-13T23:27:42.204Z,15.20
2018-05-13T23:30:09.820Z,15.30
2018-05-13T23:32:38.224Z,14.50
2018-05-13T23:35:06.601Z,14.10
2018-05-13T23:37:35.016Z,14.60
2018-05-13T23:40:02.616Z,14.60
2018-05-13T23:42:30.254Z,14.50
2018-05-13T23:44:57.868Z,14.20
2018-05-13T23:47:25.505Z,14.70
2018-05-13T23:49:53.216Z,14.60
2018-05-13T23:52:20.864Z,15.10
2018-05-13T23:54:48.549Z,15.10
2018-05-13T23:57:16.221Z,15.10
2018-05-13T23:59:43.895Z,14.70
